Ana Sayfa
METAR-TAF:

METAR-TAF

Havaalanları :

Tokat Havalimanı

Tokat, Türkiye

Enlem: 40-18N, Boylam: 036-34E, yükseklik: 608 m

Güncel hava durumu gözlemi

Rapor saat 11:50 UTC de 1 saat ve 8 dakika önce yapıldı.
Rüzgar güneybatıdan 7 kt, güney ve batı/kuzeybatı arasında değişken
Sıcaklık 29°C
Nem 40%
Basınç 1011 hPa
Görüş mesafesi 10 km veya daha fazla
3500 ft yükseklikte parçalı bulutlu
10000 ft yükseklikte parçalı çok bulutlu

METAR: LTAW 201150Z 23007KT 180V300 9999 SCT035 BKN100 29/14 Q1011

Saat: 15:58 (12:58 UTC)

Tahmin

Rapor saat 10:40 UTC de 2 saat ve 18 dakika önce yapıldı.
Ayın 20'si saat 12 UTC'den ayın 20'si saat 21 UTC'ye kadar geçerli Tahmin
Rüzgar kuzey/kuzeydoğudan 12 kt
Görüş mesafesi 10 km veya daha fazla
3500 ft yükseklikte parçalı bulutlu
Dönüşüyor
ayın 20'si saat 18 UTC'den ayın 20'si saat 21 UTC'ye kadar
Rüzgar değişken yönden 2 kt

TAF: LTAW 201040Z 2012/2021 02012KT 9999 SCT035 BECMG 2018/2021 VRB02KT

4.000'den fazla havaalanı için hava durumu gözlemleri ve tahminleri (METAR ve TAF raporları).

Kullanılabilir istasyonlar harita üzerinde sarı ve kırmızı noktalarla gösterilir.

İstasyonun adını görmek için fareyi noktanın üzerinde gezdirin.

Sonrasında hava gözlem ve tahminlerini görmek için tıklayın.

Haritayı değiştirmek için: yaklaştırmak için siyah artı işaretli yeşil düğmeye ve uzaklaştırmak için de eksi işaretli düğmeye hızla tıklayın; bitişik haritalar için yeşil okları kullanın.


METAR-TAF: